createdAt,value
2023-04-17T00:03:16.011Z,43.5
2023-04-17T00:09:09.289Z,43.4
2023-04-17T00:15:15.425Z,43.4
2023-04-17T00:20:52.477Z,43.4
2023-04-17T00:26:27.971Z,43.4
2023-04-17T00:32:05.091Z,43.3
2023-04-17T00:37:56.301Z,43.3
2023-04-17T00:43:48.111Z,43.3
2023-04-17T00:49:39.926Z,43.3
2023-04-17T00:55:31.707Z,43.3
2023-04-17T01:01:24.146Z,43.2
2023-04-17T01:07:18.604Z,43.2
2023-04-17T01:12:39.194Z,43.2
2023-04-17T01:18:30.507Z,43.1
2023-04-17T01:24:22.320Z,43.1
2023-04-17T01:30:13.139Z,43.1
2023-04-17T01:36:05.237Z,43.1
2023-04-17T01:41:41.260Z,43.1
2023-04-17T01:47:32.984Z,43
2023-04-17T01:53:09.521Z,43
2023-04-17T01:58:45.704Z,42.9
2023-04-17T02:04:38.813Z,42.9
2023-04-17T02:10:15.700Z,42.9
2023-04-17T02:16:07.130Z,42.9
2023-04-17T02:21:43.397Z,42.8
2023-04-17T02:27:20.094Z,42.8
2023-04-17T02:33:12.179Z,42.8
2023-04-17T02:39:03.151Z,42.8
2023-04-17T02:44:54.653Z,42.8
2023-04-17T02:50:31.517Z,42.8
2023-04-17T02:56:22.942Z,42.8
2023-04-17T03:02:14.981Z,42.7
2023-04-17T03:08:08.319Z,42.7
2023-04-17T03:13:59.552Z,42.7
2023-04-17T03:19:54.277Z,42.6
2023-04-17T03:25:46.023Z,42.6
2023-04-17T03:31:23.903Z,42.6
2023-04-17T03:37:00.792Z,42.6
2023-04-17T03:42:53.198Z,42.5
2023-04-17T03:48:29.424Z,42.5
2023-04-17T03:54:05.794Z,42.5
2023-04-17T03:59:57.215Z,42.4
2023-04-17T04:05:35.078Z,42.4
2023-04-17T04:11:26.249Z,42.4
2023-04-17T04:17:03.078Z,42.4
2023-04-17T04:22:39.688Z,42.3
2023-04-17T04:28:31.802Z,42.3
2023-04-17T04:34:10.252Z,42.3
2023-04-17T04:39:33.587Z,42.3
2023-04-17T04:45:09.853Z,42.3
2023-04-17T04:50:31.159Z,42.2
2023-04-17T04:55:50.666Z,42.2
2023-04-17T05:01:27.016Z,42.2
2023-04-17T05:07:06.199Z,42.2
2023-04-17T05:12:42.458Z,42.1
2023-04-17T05:18:36.211Z,42.1
2023-04-17T05:24:28.094Z,42.1
2023-04-17T05:30:03.546Z,42.1
2023-04-17T05:35:40.401Z,42
2023-04-17T05:41:19.998Z,42
2023-04-17T05:46:55.636Z,41.9
2023-04-17T05:52:32.117Z,41.9
2023-04-17T05:58:22.911Z,41.9
2023-04-17T06:04:02.050Z,41.9
2023-04-17T06:09:42.330Z,41.9
2023-04-17T06:15:18.559Z,41.8
2023-04-17T06:20:56.459Z,41.8
2023-04-17T06:26:32.557Z,41.8
2023-04-17T06:32:08.513Z,41.8
2023-04-17T06:37:52.793Z,41.8
2023-04-17T06:43:13.833Z,41.7
2023-04-17T06:48:50.889Z,41.7
2023-04-17T06:54:26.160Z,41.7
2023-04-17T07:00:02.900Z,41.6
2023-04-17T07:05:44.598Z,41.6
2023-04-17T07:11:04.280Z,41.6
2023-04-17T07:16:26.099Z,41.6
2023-04-17T07:22:03.932Z,41.6
2023-04-17T07:27:40.239Z,41.6
2023-04-17T07:33:17.005Z,41.5
2023-04-17T07:38:56.820Z,41.5
2023-04-17T07:44:33.137Z,41.4
2023-04-17T07:49:59.989Z,41.4
2023-04-17T07:55:37.313Z,41.4
2023-04-17T08:01:00.436Z,41.4
2023-04-17T08:06:39.772Z,41.4
2023-04-17T08:12:29.729Z,41.4
2023-04-17T08:17:50.874Z,41.3
2023-04-17T08:23:27.681Z,41.3
2023-04-17T08:29:07.575Z,41.3
2023-04-17T08:35:16.637Z,41.3
2023-04-17T08:40:55.645Z,41.3
2023-04-17T08:46:49.443Z,41.2
2023-04-17T08:52:41.119Z,41.2
2023-04-17T08:58:02.079Z,41.2
2023-04-17T09:03:41.132Z,41.1
2023-04-17T09:09:18.338Z,41.1
2023-04-17T09:15:10.713Z,41.1
2023-04-17T09:20:32.778Z,41.1
2023-04-17T09:25:53.338Z,41.1
2023-04-17T09:31:14.921Z,41
2023-04-17T09:36:54.797Z,41
2023-04-17T09:42:46.419Z,41
2023-04-17T09:48:38.264Z,40.9
2023-04-17T09:54:31.704Z,40.9
2023-04-17T10:00:08.021Z,40.9
2023-04-17T10:06:02.291Z,40.9
2023-04-17T10:11:54.498Z,40.9
2023-04-17T10:17:46.564Z,40.8
2023-04-17T10:23:40.971Z,40.8
2023-04-17T10:29:33.635Z,40.8
2023-04-17T10:35:29.766Z,40.8
2023-04-17T10:41:06.709Z,40.8
2023-04-17T10:46:59.549Z,40.7
2023-04-17T10:52:52.910Z,40.7
2023-04-17T10:58:48.446Z,40.6
2023-04-17T11:04:42.787Z,40.6
2023-04-17T11:10:20.284Z,40.6
2023-04-17T11:16:13.103Z,40.6
2023-04-17T11:21:50.628Z,40.6
2023-04-17T11:27:27.229Z,40.6
2023-04-17T11:32:48.376Z,40.5
2023-04-17T11:38:25.765Z,40.5
2023-04-17T11:43:47.181Z,40.4
2023-04-17T11:49:39.599Z,40.4
2023-04-17T11:55:31.272Z,40.4
2023-04-17T12:01:23.416Z,40.4
2023-04-17T12:07:03.382Z,40.3
2023-04-17T12:12:55.726Z,40.3
2023-04-17T12:18:31.894Z,40.3
2023-04-17T12:24:23.509Z,40.3
2023-04-17T12:30:00.351Z,40.3
2023-04-17T12:35:36.950Z,40.2
2023-04-17T12:41:30.591Z,40.2
2023-04-17T12:47:20.525Z,40.1
2023-04-17T12:53:12.162Z,40.1
2023-04-17T12:59:03.433Z,40.1
2023-04-17T13:04:58.709Z,40.1
2023-04-17T13:10:34.094Z,40.1
2023-04-17T13:16:10.206Z,40
2023-04-17T13:22:04.004Z,40
2023-04-17T13:27:55.260Z,40
2023-04-17T13:33:49.373Z,39.9
2023-04-17T13:39:44.240Z,39.9
2023-04-17T13:45:21.052Z,39.9
2023-04-17T13:51:15.135Z,39.9
2023-04-17T13:57:07.978Z,39.8
2023-04-17T14:02:44.782Z,39.8
2023-04-17T14:08:24.669Z,39.8
2023-04-17T14:14:19.717Z,39.8
2023-04-17T14:20:19.405Z,39.8
2023-04-17T14:25:40.070Z,39.7
2023-04-17T14:31:16.554Z,39.7
2023-04-17T14:36:56.841Z,39.7
2023-04-17T14:42:40.959Z,39.6
2023-04-17T14:48:54.651Z,39.6
2023-04-17T14:54:45.887Z,39.6
2023-04-17T15:00:36.867Z,39.6
2023-04-17T15:06:30.669Z,39.5
2023-04-17T15:12:22.864Z,39.5
2023-04-17T15:17:59.002Z,39.5
2023-04-17T15:23:50.888Z,39.5
2023-04-17T15:29:41.913Z,39.4
2023-04-17T15:35:33.309Z,39.4
2023-04-17T15:41:27.337Z,39.4
2023-04-17T15:47:20.881Z,39.4
2023-04-17T15:53:37.323Z,39.3
2023-04-17T15:59:28.966Z,39.3
2023-04-17T16:05:22.353Z,39.3
2023-04-17T16:10:58.392Z,39.3
2023-04-17T16:16:50.076Z,39.3
2023-04-17T16:22:41.677Z,39.2
2023-04-17T16:28:33.603Z,39.2
2023-04-17T16:34:10.752Z,39.1
2023-04-17T16:39:51.512Z,39.1
2023-04-17T16:45:29.006Z,39.1
2023-04-17T16:52:01.718Z,39.1
2023-04-17T16:57:52.625Z,39.1
2023-04-17T17:03:44.962Z,39
2023-04-17T17:09:06.335Z,39
2023-04-17T17:14:27.166Z,38.9
2023-04-17T17:20:19.231Z,38.9
2023-04-17T17:25:54.121Z,38.9
2023-04-17T17:31:46.006Z,38.9
2023-04-17T17:37:33.813Z,38.8
2023-04-17T17:43:10.435Z,38.8
2023-04-17T17:49:04.373Z,38.8
2023-04-17T17:54:58.287Z,38.8
2023-04-17T18:00:48.219Z,38.8
2023-04-17T18:06:27.204Z,38.7
2023-04-17T18:11:47.786Z,38.8
2023-04-17T18:17:24.961Z,38.7
2023-04-17T18:23:00.952Z,38.6
2023-04-17T18:28:36.562Z,38.6
2023-04-17T18:34:13.259Z,38.6
2023-04-17T18:40:07.927Z,38.6
2023-04-17T18:45:43.463Z,38.5
2023-04-17T18:51:20.462Z,38.5
2023-04-17T18:57:02.898Z,38.4
2023-04-17T19:02:24.755Z,38.4
2023-04-17T19:07:47.216Z,38.4
2023-04-17T19:13:40.195Z,38.4
2023-04-17T19:19:33.097Z,38.4
2023-04-17T19:25:25.735Z,38.3
2023-04-17T19:31:03.069Z,38.3
2023-04-17T19:36:56.571Z,38.2
2023-04-17T19:42:30.520Z,38.2
2023-04-17T19:48:25.583Z,38.2
2023-04-17T19:53:48.506Z,38.1
2023-04-17T19:59:26.452Z,38.1
2023-04-17T20:05:07.858Z,38.7
2023-04-17T20:10:44.358Z,39.6
2023-04-17T20:16:20.886Z,40
2023-04-17T20:22:15.316Z,40.1
2023-04-17T20:28:06.882Z,40.1
2023-04-17T20:34:00.233Z,40.1
2023-04-17T20:39:20.099Z,40.1
2023-04-17T20:45:12.270Z,40.1
2023-04-17T20:51:17.496Z,40
2023-04-17T20:57:09.132Z,40
2023-04-17T21:02:58.898Z,40
2023-04-17T21:08:36.343Z,40
2023-04-17T21:13:56.811Z,39.9
2023-04-17T21:19:33.459Z,39.9
2023-04-17T21:25:24.585Z,39.9
2023-04-17T21:31:00.250Z,39.9
2023-04-17T21:36:37.180Z,39.9
2023-04-17T21:42:15.512Z,39.9
2023-04-17T21:48:06.698Z,39.9
2023-04-17T21:53:58.222Z,39.9
2023-04-17T21:59:49.550Z,39.8
2023-04-17T22:05:41.535Z,39.8
2023-04-17T22:11:13.481Z,39.8
2023-04-17T22:16:49.671Z,39.8
2023-04-17T22:22:41.665Z,39.8
2023-04-17T22:28:17.826Z,39.8
2023-04-17T22:33:53.970Z,39.8
2023-04-17T22:39:44.786Z,39.7
2023-04-17T22:45:21.433Z,39.7
2023-04-17T22:50:43.064Z,39.7
2023-04-17T22:56:29.878Z,39.7
2023-04-17T23:02:21.380Z,39.6
2023-04-17T23:07:58.362Z,39.6
2023-04-17T23:13:49.786Z,39.6
2023-04-17T23:19:11.334Z,39.6
2023-04-17T23:24:37.390Z,39.6
2023-04-17T23:30:13.413Z,39.6
2023-04-17T23:35:50.112Z,39.5
2023-04-17T23:41:26.699Z,39.5
2023-04-17T23:47:03.191Z,39.5
2023-04-17T23:52:55.332Z,39.5
2023-04-17T23:58:47.345Z,39.4
